createdAt,value
2022-12-08T00:01:12.771Z,11.70
2022-12-08T00:03:40.976Z,12.02
2022-12-08T00:06:32.357Z,11.00
2022-12-08T00:09:18.731Z,12.50
2022-12-08T00:11:46.271Z,12.45
2022-12-08T00:14:13.905Z,13.05
2022-12-08T00:16:41.489Z,11.45
2022-12-08T00:19:09.104Z,10.75
2022-12-08T00:21:36.727Z,11.93
2022-12-08T00:24:04.409Z,11.43
2022-12-08T00:26:32.067Z,11.73
2022-12-08T00:28:59.777Z,11.63
2022-12-08T00:31:27.469Z,12.68
2022-12-08T00:33:55.169Z,11.77
2022-12-08T00:36:22.805Z,11.25
2022-12-08T00:38:50.471Z,12.38
2022-12-08T00:41:19.257Z,11.00
2022-12-08T00:43:46.932Z,11.02
2022-12-08T00:46:14.527Z,11.80
2022-12-08T00:48:42.145Z,11.10
2022-12-08T00:51:09.676Z,12.82
2022-12-08T00:53:37.349Z,11.60
2022-12-08T00:56:04.922Z,12.07
2022-12-08T00:58:32.552Z,11.50
2022-12-08T01:01:00.161Z,11.80
2022-12-08T01:03:27.947Z,11.05
2022-12-08T01:05:55.636Z,10.88
2022-12-08T01:08:23.299Z,11.27
2022-12-08T01:10:50.952Z,10.68
2022-12-08T01:13:18.611Z,11.43
2022-12-08T01:15:46.197Z,11.48
2022-12-08T01:18:13.718Z,10.85
2022-12-08T01:20:41.226Z,11.18
2022-12-08T01:23:08.738Z,12.68
2022-12-08T01:25:36.407Z,13.38
2022-12-08T01:28:03.947Z,12.27
2022-12-08T01:30:31.646Z,12.52
2022-12-08T01:32:59.251Z,12.93
2022-12-08T01:35:26.913Z,14.52
2022-12-08T01:37:54.517Z,16.42
2022-12-08T01:40:22.098Z,16.70
2022-12-08T01:42:50.234Z,15.43
2022-12-08T01:45:26.496Z,16.38
2022-12-08T01:47:56.240Z,15.75
2022-12-08T01:50:24.099Z,16.90
2022-12-08T01:52:56.769Z,15.77
2022-12-08T01:55:29.595Z,15.30
2022-12-08T01:57:59.164Z,16.63
2022-12-08T02:00:26.718Z,15.82
2022-12-08T02:03:01.714Z,16.40
2022-12-08T02:05:30.976Z,15.20
2022-12-08T02:07:59.377Z,15.45
2022-12-08T02:10:29.458Z,15.70
2022-12-08T02:12:58.667Z,15.02
2022-12-08T02:15:36.686Z,16.63
2022-12-08T02:18:25.206Z,14.77
2022-12-08T02:21:01.436Z,16.10
2022-12-08T02:23:29.036Z,15.60
2022-12-08T02:26:16.764Z,15.07
2022-12-08T02:29:06.237Z,16.05
2022-12-08T02:31:49.259Z,15.25
2022-12-08T02:34:21.127Z,15.88
2022-12-08T02:37:08.818Z,15.30
2022-12-08T02:39:42.611Z,15.93
2022-12-08T02:42:17.614Z,15.68
2022-12-08T02:45:11.689Z,15.52
2022-12-08T02:47:39.518Z,16.10
2022-12-08T02:50:08.060Z,17.13
2022-12-08T02:52:39.716Z,16.40
2022-12-08T02:55:10.106Z,16.65
2022-12-08T02:57:56.338Z,13.73
2022-12-08T03:00:25.745Z,15.02
2022-12-08T03:02:53.323Z,14.70
2022-12-08T03:05:23.689Z,13.55
2022-12-08T03:07:56.818Z,14.88
2022-12-08T03:10:28.713Z,14.07
2022-12-08T03:13:01.996Z,15.88
2022-12-08T03:15:30.723Z,15.77
2022-12-08T03:17:59.235Z,14.85
2022-12-08T03:20:28.507Z,16.38
2022-12-08T03:22:57.056Z,17.55
2022-12-08T03:25:25.194Z,15.82
2022-12-08T03:27:53.627Z,15.93
2022-12-08T03:30:21.745Z,15.52
2022-12-08T03:32:53.406Z,15.15
2022-12-08T03:35:24.162Z,16.52
2022-12-08T03:37:51.792Z,15.98
2022-12-08T03:40:20.640Z,16.17
2022-12-08T03:42:48.239Z,16.67
2022-12-08T03:45:15.766Z,15.95
2022-12-08T03:47:43.654Z,15.95
2022-12-08T03:50:12.142Z,16.83
2022-12-08T03:52:39.730Z,16.67
2022-12-08T03:55:07.613Z,16.95
2022-12-08T03:57:35.253Z,17.05
2022-12-08T04:00:03.427Z,17.10
2022-12-08T04:02:32.709Z,19.17
2022-12-08T04:05:00.247Z,18.98
2022-12-08T04:07:27.816Z,15.73
2022-12-08T04:09:55.349Z,18.23
2022-12-08T04:12:23.334Z,17.15
2022-12-08T04:14:51.711Z,17.90
2022-12-08T04:17:19.470Z,17.38
2022-12-08T04:19:47.172Z,16.73
2022-12-08T04:22:14.919Z,17.98
2022-12-08T04:24:42.629Z,16.60
2022-12-08T04:27:10.381Z,16.05
2022-12-08T04:29:38.115Z,16.02
2022-12-08T04:32:05.974Z,16.35
2022-12-08T04:34:33.719Z,16.88
2022-12-08T04:37:01.292Z,16.45
2022-12-08T04:39:28.824Z,16.23
2022-12-08T04:41:56.393Z,15.98
2022-12-08T04:44:23.944Z,16.35
2022-12-08T04:46:51.576Z,14.07
2022-12-08T04:49:19.423Z,15.25
2022-12-08T04:51:47.057Z,14.63
2022-12-08T04:54:14.820Z,16.25
2022-12-08T04:56:42.434Z,16.02
2022-12-08T04:59:10.040Z,14.93
2022-12-08T05:01:37.736Z,16.17
2022-12-08T05:04:05.371Z,14.68
2022-12-08T05:06:32.930Z,14.60
2022-12-08T05:09:00.676Z,14.30
2022-12-08T05:11:28.357Z,15.02
2022-12-08T05:13:56.034Z,13.73
2022-12-08T05:16:23.704Z,14.07
2022-12-08T05:18:51.574Z,12.70
2022-12-08T05:21:19.208Z,14.05
2022-12-08T05:23:46.820Z,13.25
2022-12-08T05:26:14.403Z,13.00
2022-12-08T05:28:43.273Z,12.60
2022-12-08T05:31:14.571Z,12.85
2022-12-08T05:33:42.521Z,11.93
2022-12-08T05:36:11.111Z,12.80
2022-12-08T05:38:38.889Z,13.85
2022-12-08T05:41:07.252Z,14.90
2022-12-08T05:43:34.860Z,12.27
2022-12-08T05:46:02.718Z,12.60
2022-12-08T05:48:30.337Z,14.60
2022-12-08T05:50:58.000Z,12.48
2022-12-08T05:53:25.558Z,12.93
2022-12-08T05:55:53.304Z,12.10
2022-12-08T05:58:21.672Z,14.80
2022-12-08T06:00:50.048Z,13.90
2022-12-08T06:03:18.740Z,13.73
2022-12-08T06:05:47.130Z,13.52
2022-12-08T06:08:14.853Z,13.75
2022-12-08T06:10:43.046Z,13.60
2022-12-08T06:13:10.609Z,13.10
2022-12-08T06:15:39.199Z,14.00
2022-12-08T06:18:07.219Z,14.60
2022-12-08T06:20:35.359Z,13.82
2022-12-08T06:23:03.516Z,14.80
2022-12-08T06:25:31.118Z,14.07
2022-12-08T06:27:58.675Z,14.63
2022-12-08T06:30:27.178Z,13.95
2022-12-08T06:32:55.007Z,14.80
2022-12-08T06:35:22.478Z,14.40
2022-12-08T06:37:51.654Z,16.33
2022-12-08T06:40:19.955Z,14.68
2022-12-08T06:42:47.658Z,14.40
2022-12-08T06:45:16.214Z,14.18
2022-12-08T06:47:44.120Z,13.60
2022-12-08T06:50:12.042Z,13.55
2022-12-08T06:52:51.668Z,13.73
2022-12-08T06:55:58.708Z,15.68
2022-12-08T06:58:16.496Z,14.52
2022-12-08T07:00:44.273Z,14.25
2022-12-08T07:03:12.955Z,13.93
2022-12-08T07:05:40.514Z,15.32
2022-12-08T07:08:09.462Z,17.35
2022-12-08T07:10:37.108Z,15.07
2022-12-08T07:13:04.769Z,15.63
2022-12-08T07:15:32.328Z,14.32
2022-12-08T07:18:00.599Z,14.15
2022-12-08T07:20:28.552Z,15.02
2022-12-08T07:22:56.282Z,15.15
2022-12-08T07:25:26.088Z,14.50
2022-12-08T07:27:53.739Z,15.35
2022-12-08T07:30:21.451Z,13.55
2022-12-08T07:32:49.111Z,15.18
2022-12-08T07:35:16.819Z,14.45
2022-12-08T07:37:44.401Z,14.88
2022-12-08T07:40:12.406Z,14.25
2022-12-08T07:42:40.099Z,13.23
2022-12-08T07:45:08.082Z,13.98
2022-12-08T07:47:35.703Z,15.07
2022-12-08T07:50:04.615Z,16.35
2022-12-08T07:52:34.431Z,15.10
2022-12-08T07:55:02.058Z,13.73
2022-12-08T07:57:29.768Z,13.48
2022-12-08T07:59:57.426Z,14.20
2022-12-08T08:02:26.255Z,15.43
2022-12-08T08:04:54.373Z,14.00
2022-12-08T08:07:22.135Z,16.02
2022-12-08T08:09:49.688Z,13.75
2022-12-08T08:12:33.128Z,15.00
2022-12-08T08:15:01.826Z,13.48
2022-12-08T08:17:30.199Z,13.32
2022-12-08T08:19:57.937Z,15.18
2022-12-08T08:22:26.243Z,13.10
2022-12-08T08:24:54.235Z,12.48
2022-12-08T08:27:23.082Z,13.73
2022-12-08T08:29:50.777Z,13.13
2022-12-08T08:32:18.770Z,11.95
2022-12-08T08:34:46.458Z,13.40
2022-12-08T08:37:14.243Z,13.15
2022-12-08T08:39:43.116Z,14.60
2022-12-08T08:42:10.773Z,13.30
2022-12-08T08:44:39.017Z,13.13
2022-12-08T08:47:06.700Z,12.98
2022-12-08T08:49:34.359Z,13.13
2022-12-08T08:52:02.093Z,13.73
2022-12-08T08:54:30.163Z,16.13
2022-12-08T08:56:58.614Z,16.35
2022-12-08T08:59:26.925Z,17.08
2022-12-08T09:01:54.999Z,20.15
2022-12-08T09:04:25.668Z,16.20
2022-12-08T09:06:53.474Z,14.27
2022-12-08T09:09:21.092Z,17.60
2022-12-08T09:11:50.039Z,16.73
2022-12-08T09:14:17.655Z,18.27
2022-12-08T09:16:45.456Z,17.67
2022-12-08T09:19:13.127Z,15.55
2022-12-08T09:21:41.902Z,16.52
2022-12-08T09:24:15.498Z,15.93
2022-12-08T09:26:44.039Z,15.82
2022-12-08T09:29:13.644Z,15.13
2022-12-08T09:31:42.746Z,12.00
2022-12-08T09:34:11.443Z,15.73
2022-12-08T09:36:40.711Z,15.68
2022-12-08T09:39:08.435Z,15.50
2022-12-08T09:41:44.827Z,16.40
2022-12-08T09:44:23.412Z,16.10
2022-12-08T09:46:53.005Z,15.45
2022-12-08T09:49:24.919Z,14.63
2022-12-08T09:51:52.568Z,14.60
2022-12-08T09:54:26.528Z,15.23
2022-12-08T09:56:56.269Z,15.57
2022-12-08T09:59:31.156Z,15.45
2022-12-08T10:01:58.855Z,15.15
2022-12-08T10:04:29.313Z,15.25
2022-12-08T10:07:04.784Z,14.63
2022-12-08T10:09:40.066Z,15.23
2022-12-08T10:12:21.936Z,16.17
2022-12-08T10:15:09.716Z,14.32
2022-12-08T10:17:41.445Z,14.63
2022-12-08T10:20:25.907Z,14.05
2022-12-08T10:22:56.829Z,14.23
2022-12-08T10:25:30.049Z,13.35
2022-12-08T10:27:59.219Z,15.00
2022-12-08T10:30:26.839Z,13.38
2022-12-08T10:32:55.771Z,14.90
2022-12-08T10:35:25.334Z,15.45
2022-12-08T10:37:59.334Z,15.57
2022-12-08T10:40:39.096Z,14.65
2022-12-08T10:43:14.277Z,15.75
2022-12-08T10:45:42.859Z,14.98
2022-12-08T10:48:13.568Z,16.15
2022-12-08T10:50:53.326Z,17.00
2022-12-08T10:53:25.377Z,16.08
2022-12-08T10:56:02.235Z,17.30
2022-12-08T10:58:30.052Z,18.55
2022-12-08T11:00:59.576Z,18.25
2022-12-08T11:03:32.016Z,17.73
2022-12-08T11:06:07.085Z,18.17
2022-12-08T11:08:45.985Z,17.48
2022-12-08T11:11:13.852Z,17.90
2022-12-08T11:13:42.068Z,16.35
2022-12-08T11:16:12.206Z,16.80
2022-12-08T11:18:44.208Z,15.93
2022-12-08T11:21:13.705Z,16.90
2022-12-08T11:23:42.793Z,16.50
2022-12-08T11:26:26.045Z,16.98
2022-12-08T11:28:55.125Z,18.55
2022-12-08T11:31:34.668Z,16.98
2022-12-08T11:34:02.808Z,16.88
2022-12-08T11:36:32.246Z,16.42
2022-12-08T11:39:03.514Z,18.73
2022-12-08T11:41:35.176Z,18.88
2022-12-08T11:44:06.846Z,19.42
2022-12-08T11:46:41.105Z,19.98
2022-12-08T11:49:13.658Z,17.60
2022-12-08T11:51:47.159Z,18.90
2022-12-08T11:54:20.878Z,19.27
2022-12-08T11:56:58.918Z,18.90
2022-12-08T11:59:32.350Z,18.67
2022-12-08T12:02:01.345Z,16.60
2022-12-08T12:04:38.404Z,17.85
2022-12-08T12:07:26.142Z,16.75
2022-12-08T12:10:13.049Z,16.95
2022-12-08T12:12:52.119Z,15.80
2022-12-08T12:15:22.898Z,16.45
2022-12-08T12:17:55.430Z,17.02
2022-12-08T12:20:41.926Z,17.42
2022-12-08T12:23:50.122Z,18.08
2022-12-08T12:26:21.827Z,19.67
2022-12-08T12:28:58.590Z,19.70
2022-12-08T12:31:32.721Z,20.40
2022-12-08T12:34:15.525Z,22.05
2022-12-08T12:37:06.465Z,21.88
2022-12-08T12:39:46.539Z,20.40
2022-12-08T12:42:32.915Z,21.73
2022-12-08T12:45:20.821Z,23.08
2022-12-08T12:47:56.904Z,24.15
2022-12-08T12:50:34.204Z,21.35
2022-12-08T12:53:25.339Z,25.05
2022-12-08T12:55:58.020Z,23.05
2022-12-08T12:58:29.256Z,22.55
2022-12-08T13:01:09.124Z,21.58
2022-12-08T13:03:38.390Z,22.42
2022-12-08T13:06:10.041Z,20.38
2022-12-08T13:08:50.522Z,23.35
2022-12-08T13:11:18.320Z,22.08
2022-12-08T13:14:03.744Z,18.48
2022-12-08T13:16:40.779Z,21.40
2022-12-08T13:19:15.983Z,20.05
2022-12-08T13:21:43.732Z,20.50
2022-12-08T13:24:14.085Z,20.52
2022-12-08T13:27:05.015Z,21.93
2022-12-08T13:29:33.663Z,22.55
2022-12-08T13:32:01.356Z,21.60
2022-12-08T13:34:35.492Z,24.58
2022-12-08T13:37:13.209Z,23.50
2022-12-08T13:39:40.827Z,22.52
2022-12-08T13:42:14.782Z,20.63
2022-12-08T13:47:37.085Z,22.30
2022-12-08T13:51:15.952Z,22.58
2022-12-08T13:58:49.713Z,21.38
2022-12-08T14:01:20.607Z,21.40
2022-12-08T14:04:12.860Z,20.63
2022-12-08T14:06:39.977Z,20.45
2022-12-08T14:09:12.182Z,20.27
2022-12-08T14:11:50.022Z,22.83
2022-12-08T14:14:45.995Z,23.17
2022-12-08T14:17:14.238Z,22.95
2022-12-08T14:19:45.972Z,23.83
2022-12-08T14:22:17.608Z,22.88
2022-12-08T14:24:48.642Z,22.48
2022-12-08T14:27:29.898Z,24.58
2022-12-08T14:30:18.159Z,22.73
2022-12-08T14:32:58.292Z,26.52
2022-12-08T14:35:25.907Z,23.60
2022-12-08T14:38:05.627Z,25.10
2022-12-08T14:40:37.401Z,27.65
2022-12-08T14:43:17.131Z,26.95
2022-12-08T14:45:44.792Z,27.90
2022-12-08T14:48:23.210Z,28.40
2022-12-08T14:51:09.580Z,26.13
2022-12-08T14:53:39.671Z,23.52
2022-12-08T14:56:08.823Z,22.35
2022-12-08T14:58:36.440Z,23.30
2022-12-08T15:01:06.918Z,23.73
2022-12-08T15:03:34.537Z,23.20
2022-12-08T15:06:05.770Z,25.88
2022-12-08T15:08:34.295Z,24.38
2022-12-08T15:11:18.404Z,26.00
2022-12-08T15:13:46.866Z,25.30
2022-12-08T15:16:28.408Z,25.80
2022-12-08T15:19:03.809Z,25.40
2022-12-08T15:21:34.819Z,23.60
2022-12-08T15:24:02.284Z,25.65
2022-12-08T15:26:32.105Z,24.17
2022-12-08T15:29:10.515Z,25.20
2022-12-08T15:31:38.054Z,26.15
2022-12-08T15:34:05.548Z,24.35
2022-12-08T15:36:33.232Z,24.17
2022-12-08T15:39:00.894Z,23.77
2022-12-08T15:41:28.366Z,25.27
2022-12-08T15:43:55.907Z,27.45
2022-12-08T15:46:23.387Z,24.10
2022-12-08T15:48:56.452Z,26.02
2022-12-08T15:51:25.669Z,28.35
2022-12-08T15:53:53.251Z,26.33
2022-12-08T15:56:28.621Z,24.95
2022-12-08T15:58:57.717Z,25.73
2022-12-08T16:01:26.279Z,25.88
2022-12-08T16:07:20.401Z,28.10
2022-12-08T16:13:26.695Z,25.92
2022-12-08T16:18:17.235Z,26.98
2022-12-08T16:21:07.599Z,27.27
2022-12-08T16:23:47.975Z,27.08
2022-12-08T16:29:09.497Z,27.17
2022-12-08T16:31:37.463Z,25.15
2022-12-08T16:34:05.067Z,27.33
2022-12-08T16:36:34.559Z,26.48
2022-12-08T16:39:04.405Z,25.30
2022-12-08T16:41:50.607Z,24.63
2022-12-08T16:44:18.075Z,23.27
2022-12-08T16:46:45.577Z,24.48
2022-12-08T16:49:15.401Z,25.13
2022-12-08T16:51:43.668Z,22.98
2022-12-08T16:54:11.967Z,24.17
2022-12-08T16:56:39.535Z,26.80
2022-12-08T16:59:07.013Z,22.80
2022-12-08T17:01:35.687Z,22.67
2022-12-08T17:06:52.718Z,24.02
2022-12-08T17:09:20.435Z,21.63
2022-12-08T17:11:51.414Z,27.35
2022-12-08T17:14:18.964Z,23.45
2022-12-08T17:20:04.930Z,25.77
2022-12-08T17:22:33.720Z,26.10
2022-12-08T17:25:02.802Z,27.75
2022-12-08T17:27:30.554Z,27.90
2022-12-08T17:30:01.052Z,27.52
2022-12-08T17:32:38.148Z,27.75
2022-12-08T17:35:06.276Z,24.92
2022-12-08T17:37:34.086Z,23.77
2022-12-08T17:40:01.645Z,25.90
2022-12-08T17:42:29.458Z,21.38
2022-12-08T17:44:57.022Z,21.85
2022-12-08T17:47:24.687Z,23.98
2022-12-08T17:49:52.211Z,23.80
2022-12-08T17:52:19.762Z,22.55
2022-12-08T17:54:47.271Z,23.23
2022-12-08T17:57:14.833Z,24.10
2022-12-08T17:59:44.505Z,26.63
2022-12-08T18:02:12.069Z,25.80
2022-12-08T18:04:39.644Z,28.10
2022-12-08T18:07:07.180Z,27.15
2022-12-08T18:09:34.683Z,27.70
2022-12-08T18:12:02.301Z,27.92
2022-12-08T18:14:29.931Z,24.30
2022-12-08T18:16:59.490Z,27.38
2022-12-08T18:19:31.677Z,23.63
2022-12-08T18:21:59.266Z,22.15
2022-12-08T18:24:27.265Z,23.08
2022-12-08T18:26:56.307Z,23.63
2022-12-08T18:29:24.356Z,26.25
2022-12-08T18:31:52.431Z,23.05
2022-12-08T18:34:19.997Z,25.83
2022-12-08T18:36:47.870Z,25.75
2022-12-08T18:39:21.796Z,27.95
2022-12-08T18:41:49.432Z,26.90
2022-12-08T18:44:17.224Z,25.38
2022-12-08T18:46:45.050Z,27.05
2022-12-08T18:49:13.676Z,26.77
2022-12-08T18:51:41.442Z,25.35
2022-12-08T18:54:09.347Z,25.77
2022-12-08T18:56:37.109Z,25.35
2022-12-08T18:59:09.653Z,26.52
2022-12-08T19:01:39.112Z,24.83
2022-12-08T19:06:57.753Z,28.02
2022-12-08T19:09:27.159Z,29.48
2022-12-08T19:12:04.112Z,26.52
2022-12-08T19:14:33.225Z,27.17
2022-12-08T19:17:02.613Z,26.95
2022-12-08T19:19:30.361Z,27.20
2022-12-08T19:21:58.251Z,29.25
2022-12-08T19:24:26.005Z,31.42
2022-12-08T19:26:53.740Z,28.98
2022-12-08T19:29:23.622Z,29.05
2022-12-08T19:31:51.318Z,28.67
2022-12-08T19:34:19.250Z,27.98
2022-12-08T19:36:47.071Z,26.75
2022-12-08T19:39:37.832Z,29.52
2022-12-08T19:42:31.857Z,27.63
2022-12-08T19:47:34.863Z,31.25
2022-12-08T19:50:24.104Z,31.40
2022-12-08T19:52:54.139Z,27.05
2022-12-08T19:55:24.765Z,26.73
2022-12-08T19:57:56.595Z,26.35
2022-12-08T20:00:24.275Z,29.92
2022-12-08T20:02:51.944Z,26.38
2022-12-08T20:05:19.615Z,27.67
2022-12-08T20:07:47.147Z,29.10
2022-12-08T20:10:21.925Z,26.48
2022-12-08T20:12:49.569Z,28.35
2022-12-08T20:15:19.318Z,28.42
2022-12-08T20:17:46.852Z,27.45
2022-12-08T20:20:15.004Z,26.80
2022-12-08T20:22:45.097Z,31.38
2022-12-08T20:25:13.461Z,28.48
2022-12-08T20:27:41.766Z,26.83
2022-12-08T20:30:16.948Z,28.98
2022-12-08T20:32:45.593Z,27.15
2022-12-08T20:35:13.249Z,28.25
2022-12-08T20:37:40.803Z,24.20
2022-12-08T20:40:08.727Z,25.92
2022-12-08T20:42:36.305Z,24.63
2022-12-08T20:45:06.664Z,26.30
2022-12-08T20:47:34.466Z,29.23
2022-12-08T20:50:08.723Z,29.02
2022-12-08T20:52:37.968Z,26.60
2022-12-08T20:55:06.668Z,27.10
2022-12-08T20:57:34.722Z,28.27
2022-12-08T21:00:02.486Z,29.85
2022-12-08T21:02:30.308Z,28.42
2022-12-08T21:04:58.024Z,30.08
2022-12-08T21:07:25.786Z,29.70
2022-12-08T21:09:53.657Z,30.35
2022-12-08T21:12:21.291Z,26.73
2022-12-08T21:14:48.869Z,29.83
2022-12-08T21:17:16.523Z,32.25
2022-12-08T21:19:44.287Z,28.83
2022-12-08T21:22:13.687Z,28.75
2022-12-08T21:24:41.526Z,30.30
2022-12-08T21:27:09.325Z,29.63
2022-12-08T21:29:37.105Z,31.13
2022-12-08T21:32:05.200Z,26.88
2022-12-08T21:34:34.254Z,29.85
2022-12-08T21:37:02.459Z,29.13
2022-12-08T21:39:32.124Z,29.17
2022-12-08T21:42:21.477Z,31.58
2022-12-08T21:47:15.996Z,31.48
2022-12-08T21:49:43.828Z,29.52
2022-12-08T21:52:12.012Z,33.22
2022-12-08T21:54:39.602Z,31.17
2022-12-08T21:57:07.200Z,32.28
2022-12-08T21:59:34.819Z,28.42
2022-12-08T22:02:02.763Z,31.98
2022-12-08T22:04:30.656Z,27.95
2022-12-08T22:06:58.424Z,30.77
2022-12-08T22:09:26.174Z,37.38
2022-12-08T22:11:53.974Z,35.53
2022-12-08T22:14:21.780Z,34.30
2022-12-08T22:16:49.780Z,28.92
2022-12-08T22:19:17.350Z,31.83
2022-12-08T22:21:45.082Z,31.13
2022-12-08T22:24:12.642Z,30.13
2022-12-08T22:26:40.264Z,28.35
2022-12-08T22:29:08.065Z,30.08
2022-12-08T22:31:35.781Z,28.90
2022-12-08T22:34:03.396Z,29.48
2022-12-08T22:36:30.982Z,31.75
2022-12-08T22:38:58.515Z,31.48
2022-12-08T22:41:26.092Z,26.52
2022-12-08T22:43:53.678Z,30.85
2022-12-08T22:46:25.214Z,30.63
2022-12-08T22:48:53.415Z,32.17
2022-12-08T22:51:21.109Z,31.05
2022-12-08T22:53:48.917Z,30.50
2022-12-08T22:56:17.120Z,29.42
2022-12-08T22:58:45.505Z,29.63
2022-12-08T23:01:23.701Z,30.52
2022-12-08T23:03:51.539Z,29.30
2022-12-08T23:06:19.380Z,29.63
2022-12-08T23:08:47.623Z,30.40
2022-12-08T23:11:15.439Z,29.40
2022-12-08T23:13:43.323Z,29.70
2022-12-08T23:16:11.864Z,28.50
2022-12-08T23:18:43.243Z,26.52
2022-12-08T23:23:38.268Z,24.35
2022-12-08T23:26:06.236Z,25.10
2022-12-08T23:28:33.880Z,27.35
2022-12-08T23:31:01.447Z,29.83
2022-12-08T23:33:30.032Z,27.45
2022-12-08T23:35:58.289Z,25.75
2022-12-08T23:38:26.097Z,25.45
2022-12-08T23:40:54.127Z,24.95
2022-12-08T23:43:21.643Z,26.88
2022-12-08T23:45:49.229Z,25.27
2022-12-08T23:48:16.739Z,23.95
2022-12-08T23:50:44.357Z,23.35
2022-12-08T23:53:11.991Z,23.40
2022-12-08T23:55:39.577Z,25.75
2022-12-08T23:58:07.323Z,22.65
